<?xml version="1.0" encoding="UTF-8" standalone="no" ?>
<gpx xmlns="http://www.topografix.com/GPX/1/1" xmlns:xsi="http://www.w3.org/2001/XMLSchema-instance" xsi:schemaLocation="http://www.topografix.com/GPX/1/1 http://www.topografix.com/GPX/1/1/gpx.xsd" version="1.1" creator="VisuGPX - https://www.visugpx.com">
  <metadata>
    <name>2024-09-16-46-Saint Caprais</name>
    <desc><![CDATA[Randonnée de 14 km sans difficulté, un beau circuit au milieu des bois, chemin de sable fin et pin maritime feront penser aux Landes. Un lavoir et la fontaine d'Audiré donnée pour source de la Thèze et le village de St Caprais donneront de l'attrait à la randonnée]]></desc>
  </metadata>
  <trk>
    <name><![CDATA[Saint Caprais 16-09-2024-19890803]]></name>
    <trkseg>
      <trkpt lat="44.60726" lon="1.15885">
        <ele>245</ele>
        <time>2024-09-13T06:50:47Z</time>
      </trkpt>
      <trkpt lat="44.60728" lon="1.15887">
        <ele>245</ele>
        <time>2024-09-13T06:50:50Z</time>
      </trkpt>
      <trkpt lat="44.60731" lon="1.15897">
        <ele>245</ele>
        <time>2024-09-13T06:51:01Z</time>
      </trkpt>
      <trkpt lat="44.6073" lon="1.15898">
        <ele>245</ele>
        <time>2024-09-13T06:51:02Z</time>
      </trkpt>
      <trkpt lat="44.60774" lon="1.15912">
        <ele>241</ele>
        <time>2024-09-13T06:52:02Z</time>
      </trkpt>
      <trkpt lat="44.60785" lon="1.1592">
        <ele>239</ele>
        <time>2024-09-13T06:52:19Z</time>
      </trkpt>
      <trkpt lat="44.60803" lon="1.15926">
        <ele>236</ele>
        <time>2024-09-13T06:52:44Z</time>
      </trkpt>
      <trkpt lat="44.60815" lon="1.15933">
        <ele>234</ele>
        <time>2024-09-13T06:53:01Z</time>
      </trkpt>
      <trkpt lat="44.60836" lon="1.15957">
        <ele>232</ele>
        <time>2024-09-13T06:53:37Z</time>
      </trkpt>
      <trkpt lat="44.60882" lon="1.1598">
        <ele>236</ele>
        <time>2024-09-13T06:54:42Z</time>
      </trkpt>
      <trkpt lat="44.60913" lon="1.16001">
        <ele>241</ele>
        <time>2024-09-13T06:55:28Z</time>
      </trkpt>
      <trkpt lat="44.6097" lon="1.16045">
        <ele>242</ele>
        <time>2024-09-13T06:56:55Z</time>
      </trkpt>
      <trkpt lat="44.60979" lon="1.16049">
        <ele>242</ele>
        <time>2024-09-13T06:57:08Z</time>
      </trkpt>
      <trkpt lat="44.60991" lon="1.1605">
        <ele>241</ele>
        <time>2024-09-13T06:57:24Z</time>
      </trkpt>
      <trkpt lat="44.61002" lon="1.16049">
        <ele>241</ele>
        <time>2024-09-13T06:57:38Z</time>
      </trkpt>
      <trkpt lat="44.61031" lon="1.16053">
        <ele>238</ele>
        <time>2024-09-13T06:58:17Z</time>
      </trkpt>
      <trkpt lat="44.61046" lon="1.16052">
        <ele>237</ele>
        <time>2024-09-13T06:58:37Z</time>
      </trkpt>
      <trkpt lat="44.61072" lon="1.16059">
        <ele>234</ele>
        <time>2024-09-13T06:59:13Z</time>
      </trkpt>
      <trkpt lat="44.61108" lon="1.16064">
        <ele>229</ele>
        <time>2024-09-13T07:00:01Z</time>
      </trkpt>
      <trkpt lat="44.61128" lon="1.1607">
        <ele>226</ele>
        <time>2024-09-13T07:00:28Z</time>
      </trkpt>
      <trkpt lat="44.61154" lon="1.16075">
        <ele>222</ele>
        <time>2024-09-13T07:01:03Z</time>
      </trkpt>
      <trkpt lat="44.61166" lon="1.16076">
        <ele>219</ele>
        <time>2024-09-13T07:01:19Z</time>
      </trkpt>
      <trkpt lat="44.61185" lon="1.16073">
        <ele>218</ele>
        <time>2024-09-13T07:01:45Z</time>
      </trkpt>
      <trkpt lat="44.61211" lon="1.16081">
        <ele>217</ele>
        <time>2024-09-13T07:02:20Z</time>
      </trkpt>
      <trkpt lat="44.6124" lon="1.16082">
        <ele>215</ele>
        <time>2024-09-13T07:02:59Z</time>
      </trkpt>
      <trkpt lat="44.61281" lon="1.16068">
        <ele>216</ele>
        <time>2024-09-13T07:03:55Z</time>
      </trkpt>
      <trkpt lat="44.61307" lon="1.16072">
        <ele>218</ele>
        <time>2024-09-13T07:04:30Z</time>
      </trkpt>
      <trkpt lat="44.6131" lon="1.16074">
        <ele>218</ele>
        <time>2024-09-13T07:04:35Z</time>
      </trkpt>
      <trkpt lat="44.61312" lon="1.16078">
        <ele>218</ele>
        <time>2024-09-13T07:04:39Z</time>
      </trkpt>
      <trkpt lat="44.6132" lon="1.16083">
        <ele>218</ele>
        <time>2024-09-13T07:04:51Z</time>
      </trkpt>
      <trkpt lat="44.6132" lon="1.16085">
        <ele>218</ele>
        <time>2024-09-13T07:04:53Z</time>
      </trkpt>
      <trkpt lat="44.61325" lon="1.1609">
        <ele>219</ele>
        <time>2024-09-13T07:05:01Z</time>
      </trkpt>
      <trkpt lat="44.61335" lon="1.16114">
        <ele>223</ele>
        <time>2024-09-13T07:05:27Z</time>
      </trkpt>
      <trkpt lat="44.61352" lon="1.16137">
        <ele>225</ele>
        <time>2024-09-13T07:05:59Z</time>
      </trkpt>
      <trkpt lat="44.6137" lon="1.16147">
        <ele>225</ele>
        <time>2024-09-13T07:06:25Z</time>
      </trkpt>
      <trkpt lat="44.61393" lon="1.16157">
        <ele>224</ele>
        <time>2024-09-13T07:06:57Z</time>
      </trkpt>
      <trkpt lat="44.61418" lon="1.16163">
        <ele>222</ele>
        <time>2024-09-13T07:07:31Z</time>
      </trkpt>
      <trkpt lat="44.61468" lon="1.16161">
        <ele>222</ele>
        <time>2024-09-13T07:08:37Z</time>
      </trkpt>
      <trkpt lat="44.61492" lon="1.16165">
        <ele>222</ele>
        <time>2024-09-13T07:09:10Z</time>
      </trkpt>
      <trkpt lat="44.6151" lon="1.16187">
        <ele>225</ele>
        <time>2024-09-13T07:09:42Z</time>
      </trkpt>
      <trkpt lat="44.61521" lon="1.16228">
        <ele>228</ele>
        <time>2024-09-13T07:10:23Z</time>
      </trkpt>
      <trkpt lat="44.61525" lon="1.16287">
        <ele>230</ele>
        <time>2024-09-13T07:11:19Z</time>
      </trkpt>
      <trkpt lat="44.61535" lon="1.16313">
        <ele>229</ele>
        <time>2024-09-13T07:11:48Z</time>
      </trkpt>
      <trkpt lat="44.61544" lon="1.16343">
        <ele>228</ele>
        <time>2024-09-13T07:12:18Z</time>
      </trkpt>
      <trkpt lat="44.61549" lon="1.16366">
        <ele>227</ele>
        <time>2024-09-13T07:12:41Z</time>
      </trkpt>
      <trkpt lat="44.61558" lon="1.16388">
        <ele>225</ele>
        <time>2024-09-13T07:13:05Z</time>
      </trkpt>
      <trkpt lat="44.61592" lon="1.16425">
        <ele>221</ele>
        <time>2024-09-13T07:14:03Z</time>
      </trkpt>
      <trkpt lat="44.61625" lon="1.16473">
        <ele>224</ele>
        <time>2024-09-13T07:15:06Z</time>
      </trkpt>
      <trkpt lat="44.61634" lon="1.16495">
        <ele>224</ele>
        <time>2024-09-13T07:15:30Z</time>
      </trkpt>
      <trkpt lat="44.61631" lon="1.16507">
        <ele>225</ele>
        <time>2024-09-13T07:15:42Z</time>
      </trkpt>
      <trkpt lat="44.6163" lon="1.16521">
        <ele>226</ele>
        <time>2024-09-13T07:15:56Z</time>
      </trkpt>
      <trkpt lat="44.61631" lon="1.16546">
        <ele>228</ele>
        <time>2024-09-13T07:16:20Z</time>
      </trkpt>
      <trkpt lat="44.61688" lon="1.1664">
        <ele>229</ele>
        <time>2024-09-13T07:18:17Z</time>
      </trkpt>
      <trkpt lat="44.61695" lon="1.1665">
        <ele>229</ele>
        <time>2024-09-13T07:18:30Z</time>
      </trkpt>
      <trkpt lat="44.61711" lon="1.16667">
        <ele>228</ele>
        <time>2024-09-13T07:18:57Z</time>
      </trkpt>
      <trkpt lat="44.61722" lon="1.16684">
        <ele>229</ele>
        <time>2024-09-13T07:19:19Z</time>
      </trkpt>
      <trkpt lat="44.61733" lon="1.16707">
        <ele>232</ele>
        <time>2024-09-13T07:19:45Z</time>
      </trkpt>
      <trkpt lat="44.6174" lon="1.16717">
        <ele>233</ele>
        <time>2024-09-13T07:19:58Z</time>
      </trkpt>
      <trkpt lat="44.61757" lon="1.16731">
        <ele>235</ele>
        <time>2024-09-13T07:20:25Z</time>
      </trkpt>
      <trkpt lat="44.6177" lon="1.16735">
        <ele>236</ele>
        <time>2024-09-13T07:20:42Z</time>
      </trkpt>
      <trkpt lat="44.61785" lon="1.16734">
        <ele>235</ele>
        <time>2024-09-13T07:21:03Z</time>
      </trkpt>
      <trkpt lat="44.61795" lon="1.16728">
        <ele>234</ele>
        <time>2024-09-13T07:21:17Z</time>
      </trkpt>
      <trkpt lat="44.61799" lon="1.16721">
        <ele>233</ele>
        <time>2024-09-13T07:21:26Z</time>
      </trkpt>
      <trkpt lat="44.61813" lon="1.16712">
        <ele>232</ele>
        <time>2024-09-13T07:21:46Z</time>
      </trkpt>
      <trkpt lat="44.61828" lon="1.16704">
        <ele>232</ele>
        <time>2024-09-13T07:22:08Z</time>
      </trkpt>
      <trkpt lat="44.61838" lon="1.16701">
        <ele>232</ele>
        <time>2024-09-13T07:22:21Z</time>
      </trkpt>
      <trkpt lat="44.61852" lon="1.16701">
        <ele>232</ele>
        <time>2024-09-13T07:22:40Z</time>
      </trkpt>
      <trkpt lat="44.61894" lon="1.16726">
        <ele>234</ele>
        <time>2024-09-13T07:23:41Z</time>
      </trkpt>
      <trkpt lat="44.61919" lon="1.16736">
        <ele>235</ele>
        <time>2024-09-13T07:24:15Z</time>
      </trkpt>
      <trkpt lat="44.61944" lon="1.1674">
        <ele>235</ele>
        <time>2024-09-13T07:24:49Z</time>
      </trkpt>
      <trkpt lat="44.6197" lon="1.16731">
        <ele>234</ele>
        <time>2024-09-13T07:25:25Z</time>
      </trkpt>
      <trkpt lat="44.61992" lon="1.1672">
        <ele>233</ele>
        <time>2024-09-13T07:25:56Z</time>
      </trkpt>
      <trkpt lat="44.6201" lon="1.16714">
        <ele>232</ele>
        <time>2024-09-13T07:26:21Z</time>
      </trkpt>
      <trkpt lat="44.62064" lon="1.16715">
        <ele>233</ele>
        <time>2024-09-13T07:27:33Z</time>
      </trkpt>
      <trkpt lat="44.62093" lon="1.16706">
        <ele>233</ele>
        <time>2024-09-13T07:28:12Z</time>
      </trkpt>
      <trkpt lat="44.62111" lon="1.16711">
        <ele>233</ele>
        <time>2024-09-13T07:28:37Z</time>
      </trkpt>
      <trkpt lat="44.62117" lon="1.16717">
        <ele>234</ele>
        <time>2024-09-13T07:28:47Z</time>
      </trkpt>
      <trkpt lat="44.62128" lon="1.16738">
        <ele>234</ele>
        <time>2024-09-13T07:29:11Z</time>
      </trkpt>
      <trkpt lat="44.6213" lon="1.16749">
        <ele>235</ele>
        <time>2024-09-13T07:29:22Z</time>
      </trkpt>
      <trkpt lat="44.62156" lon="1.16773">
        <ele>236</ele>
        <time>2024-09-13T07:30:04Z</time>
      </trkpt>
      <trkpt lat="44.62177" lon="1.16783">
        <ele>236</ele>
        <time>2024-09-13T07:30:33Z</time>
      </trkpt>
      <trkpt lat="44.6218" lon="1.16789">
        <ele>236</ele>
        <time>2024-09-13T07:30:40Z</time>
      </trkpt>
      <trkpt lat="44.62187" lon="1.16795">
        <ele>236</ele>
        <time>2024-09-13T07:30:51Z</time>
      </trkpt>
      <trkpt lat="44.62202" lon="1.16799">
        <ele>236</ele>
        <time>2024-09-13T07:31:11Z</time>
      </trkpt>
      <trkpt lat="44.62227" lon="1.1681">
        <ele>235</ele>
        <time>2024-09-13T07:31:46Z</time>
      </trkpt>
      <trkpt lat="44.62258" lon="1.16835">
        <ele>234</ele>
        <time>2024-09-13T07:32:34Z</time>
      </trkpt>
      <trkpt lat="44.6227" lon="1.16849">
        <ele>235</ele>
        <time>2024-09-13T07:32:55Z</time>
      </trkpt>
      <trkpt lat="44.62273" lon="1.16854">
        <ele>236</ele>
        <time>2024-09-13T07:33:01Z</time>
      </trkpt>
      <trkpt lat="44.62275" lon="1.1686">
        <ele>236</ele>
        <time>2024-09-13T07:33:07Z</time>
      </trkpt>
      <trkpt lat="44.62274" lon="1.1686">
        <ele>236</ele>
        <time>2024-09-13T07:33:09Z</time>
      </trkpt>
      <trkpt lat="44.62276" lon="1.16861">
        <ele>236</ele>
        <time>2024-09-13T07:33:12Z</time>
      </trkpt>
      <trkpt lat="44.62273" lon="1.16859">
        <ele>236</ele>
        <time>2024-09-13T07:33:16Z</time>
      </trkpt>
      <trkpt lat="44.62279" lon="1.16878">
        <ele>237</ele>
        <time>2024-09-13T07:33:36Z</time>
      </trkpt>
      <trkpt lat="44.62283" lon="1.16911">
        <ele>239</ele>
        <time>2024-09-13T07:34:08Z</time>
      </trkpt>
      <trkpt lat="44.62283" lon="1.16925">
        <ele>239</ele>
        <time>2024-09-13T07:34:21Z</time>
      </trkpt>
      <trkpt lat="44.62274" lon="1.1696">
        <ele>240</ele>
        <time>2024-09-13T07:34:56Z</time>
      </trkpt>
      <trkpt lat="44.62281" lon="1.17036">
        <ele>242</ele>
        <time>2024-09-13T07:36:09Z</time>
      </trkpt>
      <trkpt lat="44.62294" lon="1.17074">
        <ele>242</ele>
        <time>2024-09-13T07:36:49Z</time>
      </trkpt>
      <trkpt lat="44.62296" lon="1.17084">
        <ele>242</ele>
        <time>2024-09-13T07:36:59Z</time>
      </trkpt>
      <trkpt lat="44.62297" lon="1.17099">
        <ele>242</ele>
        <time>2024-09-13T07:37:13Z</time>
      </trkpt>
      <trkpt lat="44.62296" lon="1.17117">
        <ele>242</ele>
        <time>2024-09-13T07:37:30Z</time>
      </trkpt>
      <trkpt lat="44.62294" lon="1.1712">
        <ele>242</ele>
        <time>2024-09-13T07:37:34Z</time>
      </trkpt>
      <trkpt lat="44.62292" lon="1.17138">
        <ele>242</ele>
        <time>2024-09-13T07:37:52Z</time>
      </trkpt>
      <trkpt lat="44.62294" lon="1.17166">
        <ele>242</ele>
        <time>2024-09-13T07:38:18Z</time>
      </trkpt>
      <trkpt lat="44.62302" lon="1.17176">
        <ele>241</ele>
        <time>2024-09-13T07:38:33Z</time>
      </trkpt>
      <trkpt lat="44.62307" lon="1.17187">
        <ele>242</ele>
        <time>2024-09-13T07:38:45Z</time>
      </trkpt>
      <trkpt lat="44.6232" lon="1.17204">
        <ele>242</ele>
        <time>2024-09-13T07:39:09Z</time>
      </trkpt>
      <trkpt lat="44.62337" lon="1.17218">
        <ele>241</ele>
        <time>2024-09-13T07:39:35Z</time>
      </trkpt>
      <trkpt lat="44.62375" lon="1.17228">
        <ele>241</ele>
        <time>2024-09-13T07:40:27Z</time>
      </trkpt>
      <trkpt lat="44.62401" lon="1.17238">
        <ele>240</ele>
        <time>2024-09-13T07:41:03Z</time>
      </trkpt>
      <trkpt lat="44.62422" lon="1.17247">
        <ele>238</ele>
        <time>2024-09-13T07:41:32Z</time>
      </trkpt>
      <trkpt lat="44.62452" lon="1.17266">
        <ele>237</ele>
        <time>2024-09-13T07:42:16Z</time>
      </trkpt>
      <trkpt lat="44.62456" lon="1.17267">
        <ele>237</ele>
        <time>2024-09-13T07:42:21Z</time>
      </trkpt>
      <trkpt lat="44.62471" lon="1.17281">
        <ele>236</ele>
        <time>2024-09-13T07:42:45Z</time>
      </trkpt>
      <trkpt lat="44.62482" lon="1.17294">
        <ele>235</ele>
        <time>2024-09-13T07:43:04Z</time>
      </trkpt>
      <trkpt lat="44.62499" lon="1.1732">
        <ele>232</ele>
        <time>2024-09-13T07:43:38Z</time>
      </trkpt>
      <trkpt lat="44.62507" lon="1.17343">
        <ele>232</ele>
        <time>2024-09-13T07:44:02Z</time>
      </trkpt>
      <trkpt lat="44.62514" lon="1.1737">
        <ele>233</ele>
        <time>2024-09-13T07:44:30Z</time>
      </trkpt>
      <trkpt lat="44.62523" lon="1.17416">
        <ele>235</ele>
        <time>2024-09-13T07:45:15Z</time>
      </trkpt>
      <trkpt lat="44.62544" lon="1.17458">
        <ele>239</ele>
        <time>2024-09-13T07:46:04Z</time>
      </trkpt>
      <trkpt lat="44.62546" lon="1.17491">
        <ele>242</ele>
        <time>2024-09-13T07:46:35Z</time>
      </trkpt>
      <trkpt lat="44.62546" lon="1.17538">
        <ele>245</ele>
        <time>2024-09-13T07:47:20Z</time>
      </trkpt>
      <trkpt lat="44.6255" lon="1.17569">
        <ele>247</ele>
        <time>2024-09-13T07:47:50Z</time>
      </trkpt>
      <trkpt lat="44.62565" lon="1.17635">
        <ele>246</ele>
        <time>2024-09-13T07:48:55Z</time>
      </trkpt>
      <trkpt lat="44.62574" lon="1.17714">
        <ele>247</ele>
        <time>2024-09-13T07:50:11Z</time>
      </trkpt>
      <trkpt lat="44.62588" lon="1.17737">
        <ele>248</ele>
        <time>2024-09-13T07:50:40Z</time>
      </trkpt>
      <trkpt lat="44.62603" lon="1.17755">
        <ele>249</ele>
        <time>2024-09-13T07:51:06Z</time>
      </trkpt>
      <trkpt lat="44.62628" lon="1.17794">
        <ele>251</ele>
        <time>2024-09-13T07:51:56Z</time>
      </trkpt>
      <trkpt lat="44.62656" lon="1.1785">
        <ele>251</ele>
        <time>2024-09-13T07:53:01Z</time>
      </trkpt>
      <trkpt lat="44.62677" lon="1.17885">
        <ele>254</ele>
        <time>2024-09-13T07:53:45Z</time>
      </trkpt>
      <trkpt lat="44.62701" lon="1.17942">
        <ele>257</ele>
        <time>2024-09-13T07:54:48Z</time>
      </trkpt>
      <trkpt lat="44.627" lon="1.17952">
        <ele>257</ele>
        <time>2024-09-13T07:54:57Z</time>
      </trkpt>
      <trkpt lat="44.62705" lon="1.17968">
        <ele>257</ele>
        <time>2024-09-13T07:55:14Z</time>
      </trkpt>
      <trkpt lat="44.62713" lon="1.17985">
        <ele>257</ele>
        <time>2024-09-13T07:55:33Z</time>
      </trkpt>
      <trkpt lat="44.62719" lon="1.18027">
        <ele>257</ele>
        <time>2024-09-13T07:56:14Z</time>
      </trkpt>
      <trkpt lat="44.62719" lon="1.18086">
        <ele>258</ele>
        <time>2024-09-13T07:57:10Z</time>
      </trkpt>
      <trkpt lat="44.62715" lon="1.18119">
        <ele>259</ele>
        <time>2024-09-13T07:57:42Z</time>
      </trkpt>
      <trkpt lat="44.62725" lon="1.18146">
        <ele>259</ele>
        <time>2024-09-13T07:58:11Z</time>
      </trkpt>
      <trkpt lat="44.62732" lon="1.18174">
        <ele>260</ele>
        <time>2024-09-13T07:58:39Z</time>
      </trkpt>
      <trkpt lat="44.62748" lon="1.18196">
        <ele>262</ele>
        <time>2024-09-13T07:59:09Z</time>
      </trkpt>
      <trkpt lat="44.62755" lon="1.18214">
        <ele>263</ele>
        <time>2024-09-13T07:59:28Z</time>
      </trkpt>
      <trkpt lat="44.62773" lon="1.18246">
        <ele>265</ele>
        <time>2024-09-13T08:00:07Z</time>
      </trkpt>
      <trkpt lat="44.62789" lon="1.18259">
        <ele>266</ele>
        <time>2024-09-13T08:00:32Z</time>
      </trkpt>
      <trkpt lat="44.62814" lon="1.18298">
        <ele>266</ele>
        <time>2024-09-13T08:01:21Z</time>
      </trkpt>
      <trkpt lat="44.62821" lon="1.18306">
        <ele>266</ele>
        <time>2024-09-13T08:01:34Z</time>
      </trkpt>
      <trkpt lat="44.62844" lon="1.18348">
        <ele>266</ele>
        <time>2024-09-13T08:02:24Z</time>
      </trkpt>
      <trkpt lat="44.62858" lon="1.18367">
        <ele>267</ele>
        <time>2024-09-13T08:02:50Z</time>
      </trkpt>
      <trkpt lat="44.62867" lon="1.18404">
        <ele>268</ele>
        <time>2024-09-13T08:03:27Z</time>
      </trkpt>
      <trkpt lat="44.62871" lon="1.18433">
        <ele>269</ele>
        <time>2024-09-13T08:03:55Z</time>
      </trkpt>
      <trkpt lat="44.62882" lon="1.18454">
        <ele>270</ele>
        <time>2024-09-13T08:04:20Z</time>
      </trkpt>
      <trkpt lat="44.62893" lon="1.18504">
        <ele>272</ele>
        <time>2024-09-13T08:05:09Z</time>
      </trkpt>
      <trkpt lat="44.62899" lon="1.18524">
        <ele>272</ele>
        <time>2024-09-13T08:05:30Z</time>
      </trkpt>
      <trkpt lat="44.6291" lon="1.18548">
        <ele>272</ele>
        <time>2024-09-13T08:05:57Z</time>
      </trkpt>
      <trkpt lat="44.62929" lon="1.18598">
        <ele>274</ele>
        <time>2024-09-13T08:06:51Z</time>
      </trkpt>
      <trkpt lat="44.62964" lon="1.18656">
        <ele>276</ele>
        <time>2024-09-13T08:08:03Z</time>
      </trkpt>
      <trkpt lat="44.62987" lon="1.18682">
        <ele>277</ele>
        <time>2024-09-13T08:08:43Z</time>
      </trkpt>
      <trkpt lat="44.63032" lon="1.18763">
        <ele>282</ele>
        <time>2024-09-13T08:10:20Z</time>
      </trkpt>
      <trkpt lat="44.63046" lon="1.18797">
        <ele>284</ele>
        <time>2024-09-13T08:10:58Z</time>
      </trkpt>
      <trkpt lat="44.63059" lon="1.18818">
        <ele>285</ele>
        <time>2024-09-13T08:11:24Z</time>
      </trkpt>
      <trkpt lat="44.63062" lon="1.18847">
        <ele>286</ele>
        <time>2024-09-13T08:11:52Z</time>
      </trkpt>
      <trkpt lat="44.63069" lon="1.18876">
        <ele>287</ele>
        <time>2024-09-13T08:12:21Z</time>
      </trkpt>
      <trkpt lat="44.63084" lon="1.1891">
        <ele>288</ele>
        <time>2024-09-13T08:12:59Z</time>
      </trkpt>
      <trkpt lat="44.6309" lon="1.18916">
        <ele>288</ele>
        <time>2024-09-13T08:13:09Z</time>
      </trkpt>
      <trkpt lat="44.63102" lon="1.18923">
        <ele>288</ele>
        <time>2024-09-13T08:13:26Z</time>
      </trkpt>
      <trkpt lat="44.63106" lon="1.18922">
        <ele>288</ele>
        <time>2024-09-13T08:13:31Z</time>
      </trkpt>
      <trkpt lat="44.63108" lon="1.18928">
        <ele>288</ele>
        <time>2024-09-13T08:13:38Z</time>
      </trkpt>
      <trkpt lat="44.63102" lon="1.18934">
        <ele>288</ele>
        <time>2024-09-13T08:13:48Z</time>
      </trkpt>
      <trkpt lat="44.63101" lon="1.1893">
        <ele>288</ele>
        <time>2024-09-13T08:13:52Z</time>
      </trkpt>
      <trkpt lat="44.63095" lon="1.1894">
        <ele>288</ele>
        <time>2024-09-13T08:14:04Z</time>
      </trkpt>
      <trkpt lat="44.63079" lon="1.18986">
        <ele>289</ele>
        <time>2024-09-13T08:14:53Z</time>
      </trkpt>
      <trkpt lat="44.63064" lon="1.19067">
        <ele>292</ele>
        <time>2024-09-13T08:16:12Z</time>
      </trkpt>
      <trkpt lat="44.63054" lon="1.19088">
        <ele>293</ele>
        <time>2024-09-13T08:16:36Z</time>
      </trkpt>
      <trkpt lat="44.63035" lon="1.1909">
        <ele>292</ele>
        <time>2024-09-13T08:17:02Z</time>
      </trkpt>
      <trkpt lat="44.62993" lon="1.19086">
        <ele>290</ele>
        <time>2024-09-13T08:17:58Z</time>
      </trkpt>
      <trkpt lat="44.62986" lon="1.19088">
        <ele>289</ele>
        <time>2024-09-13T08:18:07Z</time>
      </trkpt>
      <trkpt lat="44.62962" lon="1.19086">
        <ele>287</ele>
        <time>2024-09-13T08:18:39Z</time>
      </trkpt>
      <trkpt lat="44.62957" lon="1.19087">
        <ele>287</ele>
        <time>2024-09-13T08:18:46Z</time>
      </trkpt>
      <trkpt lat="44.62939" lon="1.19082">
        <ele>286</ele>
        <time>2024-09-13T08:19:11Z</time>
      </trkpt>
      <trkpt lat="44.62919" lon="1.19069">
        <ele>283</ele>
        <time>2024-09-13T08:19:40Z</time>
      </trkpt>
      <trkpt lat="44.62887" lon="1.19053">
        <ele>281</ele>
        <time>2024-09-13T08:20:25Z</time>
      </trkpt>
      <trkpt lat="44.62861" lon="1.19012">
        <ele>279</ele>
        <time>2024-09-13T08:21:17Z</time>
      </trkpt>
      <trkpt lat="44.62842" lon="1.18994">
        <ele>278</ele>
        <time>2024-09-13T08:21:48Z</time>
      </trkpt>
      <trkpt lat="44.6282" lon="1.18965">
        <ele>278</ele>
        <time>2024-09-13T08:22:28Z</time>
      </trkpt>
      <trkpt lat="44.62788" lon="1.18934">
        <ele>278</ele>
        <time>2024-09-13T08:23:20Z</time>
      </trkpt>
      <trkpt lat="44.62772" lon="1.18921">
        <ele>279</ele>
        <time>2024-09-13T08:23:45Z</time>
      </trkpt>
      <trkpt lat="44.62751" lon="1.18908">
        <ele>279</ele>
        <time>2024-09-13T08:24:15Z</time>
      </trkpt>
      <trkpt lat="44.62723" lon="1.18897">
        <ele>280</ele>
        <time>2024-09-13T08:24:54Z</time>
      </trkpt>
      <trkpt lat="44.62714" lon="1.18897">
        <ele>280</ele>
        <time>2024-09-13T08:25:06Z</time>
      </trkpt>
      <trkpt lat="44.62696" lon="1.18899">
        <ele>280</ele>
        <time>2024-09-13T08:25:30Z</time>
      </trkpt>
      <trkpt lat="44.62672" lon="1.18907">
        <ele>280</ele>
        <time>2024-09-13T08:26:03Z</time>
      </trkpt>
      <trkpt lat="44.62626" lon="1.18918">
        <ele>281</ele>
        <time>2024-09-13T08:27:06Z</time>
      </trkpt>
      <trkpt lat="44.62609" lon="1.18919">
        <ele>282</ele>
        <time>2024-09-13T08:27:28Z</time>
      </trkpt>
      <trkpt lat="44.62592" lon="1.18925">
        <ele>282</ele>
        <time>2024-09-13T08:27:52Z</time>
      </trkpt>
      <trkpt lat="44.62533" lon="1.18951">
        <ele>283</ele>
        <time>2024-09-13T08:29:14Z</time>
      </trkpt>
      <trkpt lat="44.62467" lon="1.18977">
        <ele>283</ele>
        <time>2024-09-13T08:30:46Z</time>
      </trkpt>
      <trkpt lat="44.62438" lon="1.18992">
        <ele>283</ele>
        <time>2024-09-13T08:31:27Z</time>
      </trkpt>
      <trkpt lat="44.62421" lon="1.18997">
        <ele>283</ele>
        <time>2024-09-13T08:31:50Z</time>
      </trkpt>
      <trkpt lat="44.62403" lon="1.19006">
        <ele>283</ele>
        <time>2024-09-13T08:32:16Z</time>
      </trkpt>
      <trkpt lat="44.62379" lon="1.19028">
        <ele>282</ele>
        <time>2024-09-13T08:32:54Z</time>
      </trkpt>
      <trkpt lat="44.62361" lon="1.19041">
        <ele>282</ele>
        <time>2024-09-13T08:33:21Z</time>
      </trkpt>
      <trkpt lat="44.62345" lon="1.1905">
        <ele>282</ele>
        <time>2024-09-13T08:33:44Z</time>
      </trkpt>
      <trkpt lat="44.62301" lon="1.19057">
        <ele>282</ele>
        <time>2024-09-13T08:34:43Z</time>
      </trkpt>
      <trkpt lat="44.62275" lon="1.19069">
        <ele>282</ele>
        <time>2024-09-13T08:35:19Z</time>
      </trkpt>
      <trkpt lat="44.62253" lon="1.19068">
        <ele>282</ele>
        <time>2024-09-13T08:35:49Z</time>
      </trkpt>
      <trkpt lat="44.62238" lon="1.19069">
        <ele>283</ele>
        <time>2024-09-13T08:36:09Z</time>
      </trkpt>
      <trkpt lat="44.62196" lon="1.19075">
        <ele>284</ele>
        <time>2024-09-13T08:37:05Z</time>
      </trkpt>
      <trkpt lat="44.62152" lon="1.19071">
        <ele>286</ele>
        <time>2024-09-13T08:38:04Z</time>
      </trkpt>
      <trkpt lat="44.621" lon="1.19071">
        <ele>289</ele>
        <time>2024-09-13T08:39:13Z</time>
      </trkpt>
      <trkpt lat="44.62059" lon="1.19082">
        <ele>290</ele>
        <time>2024-09-13T08:40:09Z</time>
      </trkpt>
      <trkpt lat="44.6199" lon="1.19092">
        <ele>288</ele>
        <time>2024-09-13T08:41:42Z</time>
      </trkpt>
      <trkpt lat="44.6195" lon="1.19106">
        <ele>285</ele>
        <time>2024-09-13T08:42:37Z</time>
      </trkpt>
      <trkpt lat="44.61896" lon="1.19116">
        <ele>281</ele>
        <time>2024-09-13T08:43:49Z</time>
      </trkpt>
      <trkpt lat="44.61876" lon="1.19125">
        <ele>280</ele>
        <time>2024-09-13T08:44:17Z</time>
      </trkpt>
      <trkpt lat="44.61853" lon="1.19138">
        <ele>279</ele>
        <time>2024-09-13T08:44:50Z</time>
      </trkpt>
      <trkpt lat="44.61837" lon="1.19144">
        <ele>278</ele>
        <time>2024-09-13T08:45:13Z</time>
      </trkpt>
      <trkpt lat="44.61798" lon="1.19153">
        <ele>277</ele>
        <time>2024-09-13T08:46:05Z</time>
      </trkpt>
      <trkpt lat="44.61769" lon="1.19153">
        <ele>277</ele>
        <time>2024-09-13T08:46:44Z</time>
      </trkpt>
      <trkpt lat="44.61732" lon="1.19149">
        <ele>278</ele>
        <time>2024-09-13T08:47:33Z</time>
      </trkpt>
      <trkpt lat="44.61711" lon="1.19145">
        <ele>279</ele>
        <time>2024-09-13T08:48:02Z</time>
      </trkpt>
      <trkpt lat="44.61692" lon="1.19138">
        <ele>280</ele>
        <time>2024-09-13T08:48:28Z</time>
      </trkpt>
      <trkpt lat="44.61658" lon="1.19113">
        <ele>282</ele>
        <time>2024-09-13T08:49:19Z</time>
      </trkpt>
      <trkpt lat="44.6164" lon="1.19103">
        <ele>283</ele>
        <time>2024-09-13T08:49:45Z</time>
      </trkpt>
      <trkpt lat="44.61603" lon="1.19086">
        <ele>284</ele>
        <time>2024-09-13T08:50:37Z</time>
      </trkpt>
      <trkpt lat="44.61569" lon="1.1908">
        <ele>284</ele>
        <time>2024-09-13T08:51:23Z</time>
      </trkpt>
      <trkpt lat="44.61556" lon="1.19082">
        <ele>284</ele>
        <time>2024-09-13T08:51:40Z</time>
      </trkpt>
      <trkpt lat="44.61531" lon="1.1908">
        <ele>285</ele>
        <time>2024-09-13T08:52:14Z</time>
      </trkpt>
      <trkpt lat="44.61481" lon="1.19068">
        <ele>284</ele>
        <time>2024-09-13T08:53:21Z</time>
      </trkpt>
      <trkpt lat="44.61463" lon="1.19061">
        <ele>284</ele>
        <time>2024-09-13T08:53:46Z</time>
      </trkpt>
      <trkpt lat="44.61432" lon="1.19055">
        <ele>283</ele>
        <time>2024-09-13T08:54:28Z</time>
      </trkpt>
      <trkpt lat="44.6142" lon="1.1905">
        <ele>283</ele>
        <time>2024-09-13T08:54:45Z</time>
      </trkpt>
      <trkpt lat="44.61394" lon="1.19027">
        <ele>282</ele>
        <time>2024-09-13T08:55:26Z</time>
      </trkpt>
      <trkpt lat="44.61385" lon="1.19024">
        <ele>282</ele>
        <time>2024-09-13T08:55:38Z</time>
      </trkpt>
      <trkpt lat="44.61388" lon="1.19026">
        <ele>282</ele>
        <time>2024-09-13T08:55:42Z</time>
      </trkpt>
      <trkpt lat="44.61385" lon="1.19024">
        <ele>282</ele>
        <time>2024-09-13T08:55:47Z</time>
      </trkpt>
      <trkpt lat="44.61383" lon="1.19019">
        <ele>282</ele>
        <time>2024-09-13T08:55:52Z</time>
      </trkpt>
      <trkpt lat="44.61384" lon="1.19012">
        <ele>282</ele>
        <time>2024-09-13T08:55:59Z</time>
      </trkpt>
      <trkpt lat="44.61379" lon="1.18994">
        <ele>281</ele>
        <time>2024-09-13T08:56:17Z</time>
      </trkpt>
      <trkpt lat="44.61381" lon="1.1895">
        <ele>280</ele>
        <time>2024-09-13T08:56:59Z</time>
      </trkpt>
      <trkpt lat="44.61366" lon="1.18921">
        <ele>278</ele>
        <time>2024-09-13T08:57:33Z</time>
      </trkpt>
      <trkpt lat="44.61317" lon="1.18902">
        <ele>276</ele>
        <time>2024-09-13T08:58:41Z</time>
      </trkpt>
      <trkpt lat="44.61296" lon="1.18886">
        <ele>275</ele>
        <time>2024-09-13T08:59:13Z</time>
      </trkpt>
      <trkpt lat="44.6128" lon="1.18877">
        <ele>274</ele>
        <time>2024-09-13T08:59:36Z</time>
      </trkpt>
      <trkpt lat="44.61261" lon="1.1886">
        <ele>273</ele>
        <time>2024-09-13T09:00:06Z</time>
      </trkpt>
      <trkpt lat="44.61234" lon="1.18828">
        <ele>271</ele>
        <time>2024-09-13T09:00:53Z</time>
      </trkpt>
      <trkpt lat="44.61207" lon="1.1882">
        <ele>268</ele>
        <time>2024-09-13T09:01:30Z</time>
      </trkpt>
      <trkpt lat="44.61167" lon="1.18813">
        <ele>264</ele>
        <time>2024-09-13T09:02:24Z</time>
      </trkpt>
      <trkpt lat="44.61165" lon="1.18815">
        <ele>264</ele>
        <time>2024-09-13T09:02:27Z</time>
      </trkpt>
      <trkpt lat="44.61158" lon="1.18812">
        <ele>264</ele>
        <time>2024-09-13T09:02:37Z</time>
      </trkpt>
      <trkpt lat="44.61092" lon="1.18807">
        <ele>258</ele>
        <time>2024-09-13T09:04:05Z</time>
      </trkpt>
      <trkpt lat="44.61069" lon="1.18801">
        <ele>257</ele>
        <time>2024-09-13T09:04:36Z</time>
      </trkpt>
      <trkpt lat="44.6103" lon="1.18786">
        <ele>255</ele>
        <time>2024-09-13T09:05:30Z</time>
      </trkpt>
      <trkpt lat="44.60995" lon="1.1878">
        <ele>254</ele>
        <time>2024-09-13T09:06:17Z</time>
      </trkpt>
      <trkpt lat="44.60979" lon="1.18774">
        <ele>254</ele>
        <time>2024-09-13T09:06:39Z</time>
      </trkpt>
      <trkpt lat="44.60927" lon="1.18762">
        <ele>252</ele>
        <time>2024-09-13T09:07:50Z</time>
      </trkpt>
      <trkpt lat="44.60906" lon="1.18752">
        <ele>251</ele>
        <time>2024-09-13T09:08:19Z</time>
      </trkpt>
      <trkpt lat="44.60882" lon="1.18737">
        <ele>251</ele>
        <time>2024-09-13T09:08:54Z</time>
      </trkpt>
      <trkpt lat="44.60859" lon="1.1873">
        <ele>250</ele>
        <time>2024-09-13T09:09:26Z</time>
      </trkpt>
      <trkpt lat="44.60834" lon="1.18732">
        <ele>251</ele>
        <time>2024-09-13T09:09:59Z</time>
      </trkpt>
      <trkpt lat="44.6081" lon="1.18743">
        <ele>251</ele>
        <time>2024-09-13T09:10:33Z</time>
      </trkpt>
      <trkpt lat="44.60753" lon="1.188">
        <ele>250</ele>
        <time>2024-09-13T09:12:06Z</time>
      </trkpt>
      <trkpt lat="44.60704" lon="1.18868">
        <ele>251</ele>
        <time>2024-09-13T09:13:38Z</time>
      </trkpt>
      <trkpt lat="44.60685" lon="1.18902">
        <ele>251</ele>
        <time>2024-09-13T09:14:19Z</time>
      </trkpt>
      <trkpt lat="44.60652" lon="1.18968">
        <ele>250</ele>
        <time>2024-09-13T09:15:36Z</time>
      </trkpt>
      <trkpt lat="44.60645" lon="1.18977">
        <ele>250</ele>
        <time>2024-09-13T09:15:49Z</time>
      </trkpt>
      <trkpt lat="44.60635" lon="1.18983">
        <ele>249</ele>
        <time>2024-09-13T09:16:03Z</time>
      </trkpt>
      <trkpt lat="44.60623" lon="1.18994">
        <ele>248</ele>
        <time>2024-09-13T09:16:22Z</time>
      </trkpt>
      <trkpt lat="44.6061" lon="1.19009">
        <ele>247</ele>
        <time>2024-09-13T09:16:45Z</time>
      </trkpt>
      <trkpt lat="44.60598" lon="1.19015">
        <ele>247</ele>
        <time>2024-09-13T09:17:02Z</time>
      </trkpt>
      <trkpt lat="44.60571" lon="1.19015">
        <ele>245</ele>
        <time>2024-09-13T09:17:38Z</time>
      </trkpt>
      <trkpt lat="44.60545" lon="1.19012">
        <ele>245</ele>
        <time>2024-09-13T09:18:13Z</time>
      </trkpt>
      <trkpt lat="44.60503" lon="1.19004">
        <ele>244</ele>
        <time>2024-09-13T09:19:09Z</time>
      </trkpt>
      <trkpt lat="44.60479" lon="1.19011">
        <ele>243</ele>
        <time>2024-09-13T09:19:42Z</time>
      </trkpt>
      <trkpt lat="44.60438" lon="1.19029">
        <ele>241</ele>
        <time>2024-09-13T09:20:39Z</time>
      </trkpt>
      <trkpt lat="44.60412" lon="1.19028">
        <ele>240</ele>
        <time>2024-09-13T09:21:14Z</time>
      </trkpt>
      <trkpt lat="44.6039" lon="1.19017">
        <ele>240</ele>
        <time>2024-09-13T09:21:45Z</time>
      </trkpt>
      <trkpt lat="44.60369" lon="1.18994">
        <ele>239</ele>
        <time>2024-09-13T09:22:21Z</time>
      </trkpt>
      <trkpt lat="44.60357" lon="1.1897">
        <ele>238</ele>
        <time>2024-09-13T09:22:48Z</time>
      </trkpt>
      <trkpt lat="44.60344" lon="1.18918">
        <ele>238</ele>
        <time>2024-09-13T09:23:41Z</time>
      </trkpt>
      <trkpt lat="44.60331" lon="1.18899">
        <ele>236</ele>
        <time>2024-09-13T09:24:06Z</time>
      </trkpt>
      <trkpt lat="44.60306" lon="1.18884">
        <ele>237</ele>
        <time>2024-09-13T09:24:42Z</time>
      </trkpt>
      <trkpt lat="44.60301" lon="1.18884">
        <ele>238</ele>
        <time>2024-09-13T09:24:49Z</time>
      </trkpt>
      <trkpt lat="44.603" lon="1.18874">
        <ele>238</ele>
        <time>2024-09-13T09:24:58Z</time>
      </trkpt>
      <trkpt lat="44.60339" lon="1.18776">
        <ele>237</ele>
        <time>2024-09-13T09:26:45Z</time>
      </trkpt>
      <trkpt lat="44.60345" lon="1.18754">
        <ele>237</ele>
        <time>2024-09-13T09:27:07Z</time>
      </trkpt>
      <trkpt lat="44.60349" lon="1.18729">
        <ele>237</ele>
        <time>2024-09-13T09:27:32Z</time>
      </trkpt>
      <trkpt lat="44.6035" lon="1.18708">
        <ele>238</ele>
        <time>2024-09-13T09:27:52Z</time>
      </trkpt>
      <trkpt lat="44.60345" lon="1.18653">
        <ele>238</ele>
        <time>2024-09-13T09:28:44Z</time>
      </trkpt>
      <trkpt lat="44.60333" lon="1.18616">
        <ele>238</ele>
        <time>2024-09-13T09:29:23Z</time>
      </trkpt>
      <trkpt lat="44.60332" lon="1.18607">
        <ele>238</ele>
        <time>2024-09-13T09:29:32Z</time>
      </trkpt>
      <trkpt lat="44.60327" lon="1.18595">
        <ele>238</ele>
        <time>2024-09-13T09:29:45Z</time>
      </trkpt>
      <trkpt lat="44.60298" lon="1.18548">
        <ele>242</ele>
        <time>2024-09-13T09:30:44Z</time>
      </trkpt>
      <trkpt lat="44.60294" lon="1.18544">
        <ele>242</ele>
        <time>2024-09-13T09:30:51Z</time>
      </trkpt>
      <trkpt lat="44.60281" lon="1.18517">
        <ele>243</ele>
        <time>2024-09-13T09:31:22Z</time>
      </trkpt>
      <trkpt lat="44.60258" lon="1.18483">
        <ele>242</ele>
        <time>2024-09-13T09:32:06Z</time>
      </trkpt>
      <trkpt lat="44.60242" lon="1.18464">
        <ele>242</ele>
        <time>2024-09-13T09:32:34Z</time>
      </trkpt>
      <trkpt lat="44.60227" lon="1.18434">
        <ele>244</ele>
        <time>2024-09-13T09:33:09Z</time>
      </trkpt>
      <trkpt lat="44.60203" lon="1.18399">
        <ele>247</ele>
        <time>2024-09-13T09:33:55Z</time>
      </trkpt>
      <trkpt lat="44.60186" lon="1.18358">
        <ele>246</ele>
        <time>2024-09-13T09:34:40Z</time>
      </trkpt>
      <trkpt lat="44.6017" lon="1.18305">
        <ele>242</ele>
        <time>2024-09-13T09:35:35Z</time>
      </trkpt>
      <trkpt lat="44.60149" lon="1.18286">
        <ele>242</ele>
        <time>2024-09-13T09:36:08Z</time>
      </trkpt>
      <trkpt lat="44.60098" lon="1.18256">
        <ele>238</ele>
        <time>2024-09-13T09:37:22Z</time>
      </trkpt>
      <trkpt lat="44.60062" lon="1.18231">
        <ele>237</ele>
        <time>2024-09-13T09:38:16Z</time>
      </trkpt>
      <trkpt lat="44.60044" lon="1.18221">
        <ele>236</ele>
        <time>2024-09-13T09:38:41Z</time>
      </trkpt>
      <trkpt lat="44.6002" lon="1.18215">
        <ele>236</ele>
        <time>2024-09-13T09:39:14Z</time>
      </trkpt>
      <trkpt lat="44.59989" lon="1.18216">
        <ele>235</ele>
        <time>2024-09-13T09:39:55Z</time>
      </trkpt>
      <trkpt lat="44.59973" lon="1.18226">
        <ele>234</ele>
        <time>2024-09-13T09:40:19Z</time>
      </trkpt>
      <trkpt lat="44.59942" lon="1.18239">
        <ele>231</ele>
        <time>2024-09-13T09:41:02Z</time>
      </trkpt>
      <trkpt lat="44.59902" lon="1.18269">
        <ele>230</ele>
        <time>2024-09-13T09:42:02Z</time>
      </trkpt>
      <trkpt lat="44.59873" lon="1.18264">
        <ele>229</ele>
        <time>2024-09-13T09:42:41Z</time>
      </trkpt>
      <trkpt lat="44.59824" lon="1.18212">
        <ele>224</ele>
        <time>2024-09-13T09:44:03Z</time>
      </trkpt>
      <trkpt lat="44.59816" lon="1.18207">
        <ele>224</ele>
        <time>2024-09-13T09:44:15Z</time>
      </trkpt>
      <trkpt lat="44.59793" lon="1.18184">
        <ele>222</ele>
        <time>2024-09-13T09:44:53Z</time>
      </trkpt>
      <trkpt lat="44.59779" lon="1.18167">
        <ele>220</ele>
        <time>2024-09-13T09:45:17Z</time>
      </trkpt>
      <trkpt lat="44.59766" lon="1.18149">
        <ele>220</ele>
        <time>2024-09-13T09:45:42Z</time>
      </trkpt>
      <trkpt lat="44.59769" lon="1.18139">
        <ele>220</ele>
        <time>2024-09-13T09:45:52Z</time>
      </trkpt>
      <trkpt lat="44.59767" lon="1.18136">
        <ele>220</ele>
        <time>2024-09-13T09:45:56Z</time>
      </trkpt>
      <trkpt lat="44.59761" lon="1.18083">
        <ele>221</ele>
        <time>2024-09-13T09:46:47Z</time>
      </trkpt>
      <trkpt lat="44.59763" lon="1.18074">
        <ele>220</ele>
        <time>2024-09-13T09:46:56Z</time>
      </trkpt>
      <trkpt lat="44.59759" lon="1.18051">
        <ele>218</ele>
        <time>2024-09-13T09:47:18Z</time>
      </trkpt>
      <trkpt lat="44.5976" lon="1.18035">
        <ele>217</ele>
        <time>2024-09-13T09:47:34Z</time>
      </trkpt>
      <trkpt lat="44.59767" lon="1.17989">
        <ele>215</ele>
        <time>2024-09-13T09:48:18Z</time>
      </trkpt>
      <trkpt lat="44.59765" lon="1.17972">
        <ele>216</ele>
        <time>2024-09-13T09:48:35Z</time>
      </trkpt>
      <trkpt lat="44.59765" lon="1.1794">
        <ele>216</ele>
        <time>2024-09-13T09:49:05Z</time>
      </trkpt>
      <trkpt lat="44.59767" lon="1.17916">
        <ele>216</ele>
        <time>2024-09-13T09:49:28Z</time>
      </trkpt>
      <trkpt lat="44.59761" lon="1.17901">
        <ele>217</ele>
        <time>2024-09-13T09:49:44Z</time>
      </trkpt>
      <trkpt lat="44.59737" lon="1.17876">
        <ele>218</ele>
        <time>2024-09-13T09:50:24Z</time>
      </trkpt>
      <trkpt lat="44.59736" lon="1.17873">
        <ele>218</ele>
        <time>2024-09-13T09:50:27Z</time>
      </trkpt>
      <trkpt lat="44.59718" lon="1.17856">
        <ele>218</ele>
        <time>2024-09-13T09:50:56Z</time>
      </trkpt>
      <trkpt lat="44.59682" lon="1.1783">
        <ele>214</ele>
        <time>2024-09-13T09:51:50Z</time>
      </trkpt>
      <trkpt lat="44.59657" lon="1.17805">
        <ele>213</ele>
        <time>2024-09-13T09:52:31Z</time>
      </trkpt>
      <trkpt lat="44.59609" lon="1.17778">
        <ele>214</ele>
        <time>2024-09-13T09:53:40Z</time>
      </trkpt>
      <trkpt lat="44.59594" lon="1.17765">
        <ele>213</ele>
        <time>2024-09-13T09:54:04Z</time>
      </trkpt>
      <trkpt lat="44.5958" lon="1.17751">
        <ele>213</ele>
        <time>2024-09-13T09:54:27Z</time>
      </trkpt>
      <trkpt lat="44.59565" lon="1.17731">
        <ele>212</ele>
        <time>2024-09-13T09:54:54Z</time>
      </trkpt>
      <trkpt lat="44.59542" lon="1.17683">
        <ele>210</ele>
        <time>2024-09-13T09:55:49Z</time>
      </trkpt>
      <trkpt lat="44.59534" lon="1.1767">
        <ele>209</ele>
        <time>2024-09-13T09:56:06Z</time>
      </trkpt>
      <trkpt lat="44.59531" lon="1.17668">
        <ele>208</ele>
        <time>2024-09-13T09:56:10Z</time>
      </trkpt>
      <trkpt lat="44.59512" lon="1.17629">
        <ele>207</ele>
        <time>2024-09-13T09:56:55Z</time>
      </trkpt>
      <trkpt lat="44.59495" lon="1.17582">
        <ele>206</ele>
        <time>2024-09-13T09:57:45Z</time>
      </trkpt>
      <trkpt lat="44.59487" lon="1.17528">
        <ele>208</ele>
        <time>2024-09-13T09:58:38Z</time>
      </trkpt>
      <trkpt lat="44.59481" lon="1.17505">
        <ele>209</ele>
        <time>2024-09-13T09:59:01Z</time>
      </trkpt>
      <trkpt lat="44.59471" lon="1.17487">
        <ele>209</ele>
        <time>2024-09-13T09:59:23Z</time>
      </trkpt>
      <trkpt lat="44.59461" lon="1.17463">
        <ele>208</ele>
        <time>2024-09-13T09:59:49Z</time>
      </trkpt>
      <trkpt lat="44.59458" lon="1.17438">
        <ele>208</ele>
        <time>2024-09-13T10:00:13Z</time>
      </trkpt>
      <trkpt lat="44.5946" lon="1.17418">
        <ele>208</ele>
        <time>2024-09-13T10:00:32Z</time>
      </trkpt>
      <trkpt lat="44.59471" lon="1.17407">
        <ele>208</ele>
        <time>2024-09-13T10:00:50Z</time>
      </trkpt>
      <trkpt lat="44.59481" lon="1.17402">
        <ele>208</ele>
        <time>2024-09-13T10:01:04Z</time>
      </trkpt>
      <trkpt lat="44.59486" lon="1.17395">
        <ele>208</ele>
        <time>2024-09-13T10:01:14Z</time>
      </trkpt>
      <trkpt lat="44.59493" lon="1.17392">
        <ele>209</ele>
        <time>2024-09-13T10:01:24Z</time>
      </trkpt>
      <trkpt lat="44.59501" lon="1.17384">
        <ele>209</ele>
        <time>2024-09-13T10:01:37Z</time>
      </trkpt>
      <trkpt lat="44.59517" lon="1.17375">
        <ele>211</ele>
        <time>2024-09-13T10:02:00Z</time>
      </trkpt>
      <trkpt lat="44.59545" lon="1.17367">
        <ele>214</ele>
        <time>2024-09-13T10:02:38Z</time>
      </trkpt>
      <trkpt lat="44.59573" lon="1.17349">
        <ele>217</ele>
        <time>2024-09-13T10:03:19Z</time>
      </trkpt>
      <trkpt lat="44.59608" lon="1.17312">
        <ele>221</ele>
        <time>2024-09-13T10:04:17Z</time>
      </trkpt>
      <trkpt lat="44.5962" lon="1.17304">
        <ele>222</ele>
        <time>2024-09-13T10:04:35Z</time>
      </trkpt>
      <trkpt lat="44.59656" lon="1.1729">
        <ele>226</ele>
        <time>2024-09-13T10:05:25Z</time>
      </trkpt>
      <trkpt lat="44.59656" lon="1.17279">
        <ele>226</ele>
        <time>2024-09-13T10:05:35Z</time>
      </trkpt>
      <trkpt lat="44.59662" lon="1.17239">
        <ele>228</ele>
        <time>2024-09-13T10:06:14Z</time>
      </trkpt>
      <trkpt lat="44.59662" lon="1.17222">
        <ele>229</ele>
        <time>2024-09-13T10:06:30Z</time>
      </trkpt>
      <trkpt lat="44.59669" lon="1.17193">
        <ele>231</ele>
        <time>2024-09-13T10:07:00Z</time>
      </trkpt>
      <trkpt lat="44.59687" lon="1.17165">
        <ele>234</ele>
        <time>2024-09-13T10:07:35Z</time>
      </trkpt>
      <trkpt lat="44.59689" lon="1.17147">
        <ele>234</ele>
        <time>2024-09-13T10:07:53Z</time>
      </trkpt>
      <trkpt lat="44.5969" lon="1.17101">
        <ele>236</ele>
        <time>2024-09-13T10:08:36Z</time>
      </trkpt>
      <trkpt lat="44.59697" lon="1.17079">
        <ele>237</ele>
        <time>2024-09-13T10:08:59Z</time>
      </trkpt>
      <trkpt lat="44.59698" lon="1.1707">
        <ele>238</ele>
        <time>2024-09-13T10:09:08Z</time>
      </trkpt>
      <trkpt lat="44.59719" lon="1.17024">
        <ele>239</ele>
        <time>2024-09-13T10:10:00Z</time>
      </trkpt>
      <trkpt lat="44.59742" lon="1.16949">
        <ele>238</ele>
        <time>2024-09-13T10:11:17Z</time>
      </trkpt>
      <trkpt lat="44.59744" lon="1.16933">
        <ele>237</ele>
        <time>2024-09-13T10:11:33Z</time>
      </trkpt>
      <trkpt lat="44.59744" lon="1.16901">
        <ele>237</ele>
        <time>2024-09-13T10:12:03Z</time>
      </trkpt>
      <trkpt lat="44.59754" lon="1.16863">
        <ele>238</ele>
        <time>2024-09-13T10:12:42Z</time>
      </trkpt>
      <trkpt lat="44.59753" lon="1.16843">
        <ele>239</ele>
        <time>2024-09-13T10:13:01Z</time>
      </trkpt>
      <trkpt lat="44.5974" lon="1.16798">
        <ele>242</ele>
        <time>2024-09-13T10:13:47Z</time>
      </trkpt>
      <trkpt lat="44.59737" lon="1.16777">
        <ele>245</ele>
        <time>2024-09-13T10:14:07Z</time>
      </trkpt>
      <trkpt lat="44.59724" lon="1.1673">
        <ele>249</ele>
        <time>2024-09-13T10:14:55Z</time>
      </trkpt>
      <trkpt lat="44.59717" lon="1.16668">
        <ele>252</ele>
        <time>2024-09-13T10:15:55Z</time>
      </trkpt>
      <trkpt lat="44.59715" lon="1.16632">
        <ele>253</ele>
        <time>2024-09-13T10:16:29Z</time>
      </trkpt>
      <trkpt lat="44.59691" lon="1.16561">
        <ele>255</ele>
        <time>2024-09-13T10:17:44Z</time>
      </trkpt>
      <trkpt lat="44.59673" lon="1.16443">
        <ele>262</ele>
        <time>2024-09-13T10:19:39Z</time>
      </trkpt>
      <trkpt lat="44.59674" lon="1.16421">
        <ele>264</ele>
        <time>2024-09-13T10:20:00Z</time>
      </trkpt>
      <trkpt lat="44.59674" lon="1.16423">
        <ele>264</ele>
        <time>2024-09-13T10:20:01Z</time>
      </trkpt>
      <trkpt lat="44.59682" lon="1.16419">
        <ele>265</ele>
        <time>2024-09-13T10:20:13Z</time>
      </trkpt>
      <trkpt lat="44.59682" lon="1.16421">
        <ele>265</ele>
        <time>2024-09-13T10:20:15Z</time>
      </trkpt>
      <trkpt lat="44.59682" lon="1.1642">
        <ele>265</ele>
        <time>2024-09-13T10:20:16Z</time>
      </trkpt>
      <trkpt lat="44.59702" lon="1.16424">
        <ele>265</ele>
        <time>2024-09-13T10:20:43Z</time>
      </trkpt>
      <trkpt lat="44.59717" lon="1.16418">
        <ele>267</ele>
        <time>2024-09-13T10:21:03Z</time>
      </trkpt>
      <trkpt lat="44.59746" lon="1.16402">
        <ele>269</ele>
        <time>2024-09-13T10:21:45Z</time>
      </trkpt>
      <trkpt lat="44.59756" lon="1.16399">
        <ele>269</ele>
        <time>2024-09-13T10:21:59Z</time>
      </trkpt>
      <trkpt lat="44.59802" lon="1.16374">
        <ele>269</ele>
        <time>2024-09-13T10:23:04Z</time>
      </trkpt>
      <trkpt lat="44.59818" lon="1.16368">
        <ele>269</ele>
        <time>2024-09-13T10:23:27Z</time>
      </trkpt>
      <trkpt lat="44.59824" lon="1.16367">
        <ele>269</ele>
        <time>2024-09-13T10:23:35Z</time>
      </trkpt>
      <trkpt lat="44.59828" lon="1.16368">
        <ele>269</ele>
        <time>2024-09-13T10:23:40Z</time>
      </trkpt>
      <trkpt lat="44.59839" lon="1.16363">
        <ele>269</ele>
        <time>2024-09-13T10:23:55Z</time>
      </trkpt>
      <trkpt lat="44.59871" lon="1.1634">
        <ele>271</ele>
        <time>2024-09-13T10:24:43Z</time>
      </trkpt>
      <trkpt lat="44.59893" lon="1.16336">
        <ele>271</ele>
        <time>2024-09-13T10:25:13Z</time>
      </trkpt>
      <trkpt lat="44.59907" lon="1.1633">
        <ele>271</ele>
        <time>2024-09-13T10:25:33Z</time>
      </trkpt>
      <trkpt lat="44.59926" lon="1.16326">
        <ele>271</ele>
        <time>2024-09-13T10:25:58Z</time>
      </trkpt>
      <trkpt lat="44.59959" lon="1.16309">
        <ele>270</ele>
        <time>2024-09-13T10:26:45Z</time>
      </trkpt>
      <trkpt lat="44.59973" lon="1.16304">
        <ele>269</ele>
        <time>2024-09-13T10:27:04Z</time>
      </trkpt>
      <trkpt lat="44.60014" lon="1.16296">
        <ele>267</ele>
        <time>2024-09-13T10:28:00Z</time>
      </trkpt>
      <trkpt lat="44.60027" lon="1.1629">
        <ele>265</ele>
        <time>2024-09-13T10:28:18Z</time>
      </trkpt>
      <trkpt lat="44.60044" lon="1.16279">
        <ele>263</ele>
        <time>2024-09-13T10:28:43Z</time>
      </trkpt>
      <trkpt lat="44.60061" lon="1.16273">
        <ele>261</ele>
        <time>2024-09-13T10:29:06Z</time>
      </trkpt>
      <trkpt lat="44.60086" lon="1.16285">
        <ele>259</ele>
        <time>2024-09-13T10:29:41Z</time>
      </trkpt>
      <trkpt lat="44.60104" lon="1.16279">
        <ele>259</ele>
        <time>2024-09-13T10:30:06Z</time>
      </trkpt>
      <trkpt lat="44.60131" lon="1.16258">
        <ele>259</ele>
        <time>2024-09-13T10:30:47Z</time>
      </trkpt>
      <trkpt lat="44.60146" lon="1.16243">
        <ele>257</ele>
        <time>2024-09-13T10:31:12Z</time>
      </trkpt>
      <trkpt lat="44.60161" lon="1.16235">
        <ele>256</ele>
        <time>2024-09-13T10:31:33Z</time>
      </trkpt>
      <trkpt lat="44.60175" lon="1.16232">
        <ele>256</ele>
        <time>2024-09-13T10:31:52Z</time>
      </trkpt>
      <trkpt lat="44.60188" lon="1.16227">
        <ele>255</ele>
        <time>2024-09-13T10:32:10Z</time>
      </trkpt>
      <trkpt lat="44.60203" lon="1.16226">
        <ele>254</ele>
        <time>2024-09-13T10:32:30Z</time>
      </trkpt>
      <trkpt lat="44.60208" lon="1.16224">
        <ele>254</ele>
        <time>2024-09-13T10:32:37Z</time>
      </trkpt>
      <trkpt lat="44.60227" lon="1.16229">
        <ele>255</ele>
        <time>2024-09-13T10:33:03Z</time>
      </trkpt>
      <trkpt lat="44.60257" lon="1.16233">
        <ele>255</ele>
        <time>2024-09-13T10:33:43Z</time>
      </trkpt>
      <trkpt lat="44.60326" lon="1.16257">
        <ele>252</ele>
        <time>2024-09-13T10:35:18Z</time>
      </trkpt>
      <trkpt lat="44.60346" lon="1.16268">
        <ele>253</ele>
        <time>2024-09-13T10:35:47Z</time>
      </trkpt>
      <trkpt lat="44.60356" lon="1.16277">
        <ele>254</ele>
        <time>2024-09-13T10:36:03Z</time>
      </trkpt>
      <trkpt lat="44.60368" lon="1.16285">
        <ele>255</ele>
        <time>2024-09-13T10:36:20Z</time>
      </trkpt>
      <trkpt lat="44.60376" lon="1.16287">
        <ele>255</ele>
        <time>2024-09-13T10:36:31Z</time>
      </trkpt>
      <trkpt lat="44.6038" lon="1.1629">
        <ele>255</ele>
        <time>2024-09-13T10:36:37Z</time>
      </trkpt>
      <trkpt lat="44.604" lon="1.16294">
        <ele>256</ele>
        <time>2024-09-13T10:37:04Z</time>
      </trkpt>
      <trkpt lat="44.60421" lon="1.16301">
        <ele>257</ele>
        <time>2024-09-13T10:37:33Z</time>
      </trkpt>
      <trkpt lat="44.60456" lon="1.16303">
        <ele>256</ele>
        <time>2024-09-13T10:38:20Z</time>
      </trkpt>
      <trkpt lat="44.60486" lon="1.16308">
        <ele>255</ele>
        <time>2024-09-13T10:39:00Z</time>
      </trkpt>
      <trkpt lat="44.60497" lon="1.16312">
        <ele>255</ele>
        <time>2024-09-13T10:39:15Z</time>
      </trkpt>
      <trkpt lat="44.60501" lon="1.16312">
        <ele>254</ele>
        <time>2024-09-13T10:39:21Z</time>
      </trkpt>
      <trkpt lat="44.60502" lon="1.16314">
        <ele>254</ele>
        <time>2024-09-13T10:39:23Z</time>
      </trkpt>
      <trkpt lat="44.60504" lon="1.16313">
        <ele>254</ele>
        <time>2024-09-13T10:39:26Z</time>
      </trkpt>
      <trkpt lat="44.60514" lon="1.16255">
        <ele>253</ele>
        <time>2024-09-13T10:40:22Z</time>
      </trkpt>
      <trkpt lat="44.60514" lon="1.1623">
        <ele>253</ele>
        <time>2024-09-13T10:40:46Z</time>
      </trkpt>
      <trkpt lat="44.60516" lon="1.16215">
        <ele>253</ele>
        <time>2024-09-13T10:41:01Z</time>
      </trkpt>
      <trkpt lat="44.60516" lon="1.16157">
        <ele>253</ele>
        <time>2024-09-13T10:41:56Z</time>
      </trkpt>
      <trkpt lat="44.60519" lon="1.16124">
        <ele>253</ele>
        <time>2024-09-13T10:42:27Z</time>
      </trkpt>
      <trkpt lat="44.60523" lon="1.16102">
        <ele>253</ele>
        <time>2024-09-13T10:42:49Z</time>
      </trkpt>
      <trkpt lat="44.60522" lon="1.16067">
        <ele>252</ele>
        <time>2024-09-13T10:43:22Z</time>
      </trkpt>
      <trkpt lat="44.60517" lon="1.16054">
        <ele>252</ele>
        <time>2024-09-13T10:43:36Z</time>
      </trkpt>
      <trkpt lat="44.60516" lon="1.1604">
        <ele>252</ele>
        <time>2024-09-13T10:43:50Z</time>
      </trkpt>
      <trkpt lat="44.6051" lon="1.16008">
        <ele>251</ele>
        <time>2024-09-13T10:44:21Z</time>
      </trkpt>
      <trkpt lat="44.60505" lon="1.15968">
        <ele>250</ele>
        <time>2024-09-13T10:45:00Z</time>
      </trkpt>
      <trkpt lat="44.60504" lon="1.15947">
        <ele>249</ele>
        <time>2024-09-13T10:45:20Z</time>
      </trkpt>
      <trkpt lat="44.60506" lon="1.1593">
        <ele>248</ele>
        <time>2024-09-13T10:45:36Z</time>
      </trkpt>
      <trkpt lat="44.60511" lon="1.15914">
        <ele>248</ele>
        <time>2024-09-13T10:45:53Z</time>
      </trkpt>
      <trkpt lat="44.60522" lon="1.15891">
        <ele>246</ele>
        <time>2024-09-13T10:46:19Z</time>
      </trkpt>
      <trkpt lat="44.60529" lon="1.15884">
        <ele>245</ele>
        <time>2024-09-13T10:46:30Z</time>
      </trkpt>
      <trkpt lat="44.60542" lon="1.15878">
        <ele>245</ele>
        <time>2024-09-13T10:46:49Z</time>
      </trkpt>
      <trkpt lat="44.60555" lon="1.15865">
        <ele>243</ele>
        <time>2024-09-13T10:47:10Z</time>
      </trkpt>
      <trkpt lat="44.6056" lon="1.15863">
        <ele>243</ele>
        <time>2024-09-13T10:47:17Z</time>
      </trkpt>
      <trkpt lat="44.60568" lon="1.15852">
        <ele>242</ele>
        <time>2024-09-13T10:47:32Z</time>
      </trkpt>
      <trkpt lat="44.60589" lon="1.15829">
        <ele>240</ele>
        <time>2024-09-13T10:48:07Z</time>
      </trkpt>
      <trkpt lat="44.60598" lon="1.15825">
        <ele>240</ele>
        <time>2024-09-13T10:48:20Z</time>
      </trkpt>
      <trkpt lat="44.60616" lon="1.15838">
        <ele>242</ele>
        <time>2024-09-13T10:48:47Z</time>
      </trkpt>
      <trkpt lat="44.60633" lon="1.1584">
        <ele>243</ele>
        <time>2024-09-13T10:49:10Z</time>
      </trkpt>
      <trkpt lat="44.60665" lon="1.15831">
        <ele>245</ele>
        <time>2024-09-13T10:49:53Z</time>
      </trkpt>
      <trkpt lat="44.6067" lon="1.15828">
        <ele>245</ele>
        <time>2024-09-13T10:50:01Z</time>
      </trkpt>
      <trkpt lat="44.60676" lon="1.15829">
        <ele>244</ele>
        <time>2024-09-13T10:50:09Z</time>
      </trkpt>
      <trkpt lat="44.60683" lon="1.15838">
        <ele>245</ele>
        <time>2024-09-13T10:50:21Z</time>
      </trkpt>
      <trkpt lat="44.60686" lon="1.1585">
        <ele>245</ele>
        <time>2024-09-13T10:50:33Z</time>
      </trkpt>
      <trkpt lat="44.60695" lon="1.15847">
        <ele>245</ele>
        <time>2024-09-13T10:50:46Z</time>
      </trkpt>
      <trkpt lat="44.60702" lon="1.15847">
        <ele>245</ele>
        <time>2024-09-13T10:50:55Z</time>
      </trkpt>
      <trkpt lat="44.60707" lon="1.15848">
        <ele>245</ele>
        <time>2024-09-13T10:51:02Z</time>
      </trkpt>
      <trkpt lat="44.6072" lon="1.15856">
        <ele>244</ele>
        <time>2024-09-13T10:51:21Z</time>
      </trkpt>
      <trkpt lat="44.60728" lon="1.15883">
        <ele>245</ele>
        <time>2024-09-13T10:51:49Z</time>
      </trkpt>
      <trkpt lat="44.6073" lon="1.15886">
        <ele>245</ele>
        <time>2024-09-13T10:51:52Z</time>
      </trkpt>
      <trkpt lat="44.60731" lon="1.15885">
        <ele>245</ele>
        <time>2024-09-13T10:51:54Z</time>
      </trkpt>
    </trkseg>
  </trk>
</gpx>